sensor_id;sensor_type;location;lat;lon;timestamp;temperature;humidity
52024;DHT22;38038;45.922;13.604;2023-05-24T00:02:06;19.70;99.90
52024;DHT22;38038;45.922;13.604;2023-05-24T00:04:38;19.70;99.90
52024;DHT22;38038;45.922;13.604;2023-05-24T00:07:04;19.60;99.90
52024;DHT22;38038;45.922;13.604;2023-05-24T00:09:31;19.50;99.90
52024;DHT22;38038;45.922;13.604;2023-05-24T00:11:57;19.40;99.90
52024;DHT22;38038;45.922;13.604;2023-05-24T00:14:23;19.40;99.90
52024;DHT22;38038;45.922;13.604;2023-05-24T00:16:49;19.50;99.90
52024;DHT22;38038;45.922;13.604;2023-05-24T00:19:15;19.40;99.90
52024;DHT22;38038;45.922;13.604;2023-05-24T00:21:44;19.40;99.90
52024;DHT22;38038;45.922;13.604;2023-05-24T00:24:10;19.60;99.90
52024;DHT22;38038;45.922;13.604;2023-05-24T00:26:36;19.60;99.90
52024;DHT22;38038;45.922;13.604;2023-05-24T00:29:02;19.60;99.90
52024;DHT22;38038;45.922;13.604;2023-05-24T00:31:27;19.60;99.90
52024;DHT22;38038;45.922;13.604;2023-05-24T00:33:53;19.70;99.90
52024;DHT22;38038;45.922;13.604;2023-05-24T00:36:19;19.60;99.90
52024;DHT22;38038;45.922;13.604;2023-05-24T00:38:45;19.70;99.90
52024;DHT22;38038;45.922;13.604;2023-05-24T00:41:11;19.60;99.90
52024;DHT22;38038;45.922;13.604;2023-05-24T00:43:37;19.60;99.90
52024;DHT22;38038;45.922;13.604;2023-05-24T00:46:15;19.60;99.90
52024;DHT22;38038;45.922;13.604;2023-05-24T00:48:43;19.70;99.90
52024;DHT22;38038;45.922;13.604;2023-05-24T00:51:10;19.80;99.90
52024;DHT22;38038;45.922;13.604;2023-05-24T00:53:37;19.80;99.90
52024;DHT22;38038;45.922;13.604;2023-05-24T00:56:19;19.90;99.90
52024;DHT22;38038;45.922;13.604;2023-05-24T00:58:44;19.90;99.90
52024;DHT22;38038;45.922;13.604;2023-05-24T01:01:11;19.90;99.90
52024;DHT22;38038;45.922;13.604;2023-05-24T01:03:37;19.90;99.90
52024;DHT22;38038;45.922;13.604;2023-05-24T01:06:05;19.90;99.90
52024;DHT22;38038;45.922;13.604;2023-05-24T01:11:17;19.70;99.90
52024;DHT22;38038;45.922;13.604;2023-05-24T01:27:19;19.50;99.90
52024;DHT22;38038;45.922;13.604;2023-05-24T01:29:46;19.60;99.90
52024;DHT22;38038;45.922;13.604;2023-05-24T01:32:18;19.60;99.90
52024;DHT22;38038;45.922;13.604;2023-05-24T01:34:44;19.50;99.90
52024;DHT22;38038;45.922;13.604;2023-05-24T01:37:10;19.50;99.90
52024;DHT22;38038;45.922;13.604;2023-05-24T01:39:36;19.50;99.90
52024;DHT22;38038;45.922;13.604;2023-05-24T01:42:26;19.50;99.90
52024;DHT22;38038;45.922;13.604;2023-05-24T01:50:36;19.60;99.90
52024;DHT22;38038;45.922;13.604;2023-05-24T01:53:06;19.40;99.90
52024;DHT22;38038;45.922;13.604;2023-05-24T01:55:33;19.40;99.90
52024;DHT22;38038;45.922;13.604;2023-05-24T01:58:02;19.40;99.90
52024;DHT22;38038;45.922;13.604;2023-05-24T02:00:30;19.50;99.90
52024;DHT22;38038;45.922;13.604;2023-05-24T02:02:57;19.40;99.90
52024;DHT22;38038;45.922;13.604;2023-05-24T02:05:23;19.40;99.90
52024;DHT22;38038;45.922;13.604;2023-05-24T02:07:49;19.40;99.90
52024;DHT22;38038;45.922;13.604;2023-05-24T02:10:15;19.50;99.90
52024;DHT22;38038;45.922;13.604;2023-05-24T02:12:41;19.50;99.90
52024;DHT22;38038;45.922;13.604;2023-05-24T02:15:07;19.40;99.90
52024;DHT22;38038;45.922;13.604;2023-05-24T02:17:33;19.40;99.90
52024;DHT22;38038;45.922;13.604;2023-05-24T02:20:00;19.30;99.90
52024;DHT22;38038;45.922;13.604;2023-05-24T02:22:26;19.20;99.90
52024;DHT22;38038;45.922;13.604;2023-05-24T02:24:53;19.30;99.90
52024;DHT22;38038;45.922;13.604;2023-05-24T02:27:19;19.30;99.90
52024;DHT22;38038;45.922;13.604;2023-05-24T02:29:44;19.20;99.90
52024;DHT22;38038;45.922;13.604;2023-05-24T02:34:45;19.20;99.90
52024;DHT22;38038;45.922;13.604;2023-05-24T02:37:11;19.10;99.90
52024;DHT22;38038;45.922;13.604;2023-05-24T02:39:40;19.10;99.90
52024;DHT22;38038;45.922;13.604;2023-05-24T02:42:06;19.00;99.90
52024;DHT22;38038;45.922;13.604;2023-05-24T02:44:33;19.10;99.90
52024;DHT22;38038;45.922;13.604;2023-05-24T02:46:59;19.10;99.90
52024;DHT22;38038;45.922;13.604;2023-05-24T02:49:25;19.00;99.90
52024;DHT22;38038;45.922;13.604;2023-05-24T02:51:51;18.80;99.90
52024;DHT22;38038;45.922;13.604;2023-05-24T02:54:17;18.70;99.90
52024;DHT22;38038;45.922;13.604;2023-05-24T02:56:43;18.80;99.90
52024;DHT22;38038;45.922;13.604;2023-05-24T02:59:09;19.00;99.90
52024;DHT22;38038;45.922;13.604;2023-05-24T03:01:35;19.00;99.90
52024;DHT22;38038;45.922;13.604;2023-05-24T03:04:01;18.90;99.90
52024;DHT22;38038;45.922;13.604;2023-05-24T03:06:27;18.80;99.90
52024;DHT22;38038;45.922;13.604;2023-05-24T03:08:52;18.90;99.90
52024;DHT22;38038;45.922;13.604;2023-05-24T03:11:18;18.90;99.90
52024;DHT22;38038;45.922;13.604;2023-05-24T03:13:46;18.70;99.90
52024;DHT22;38038;45.922;13.604;2023-05-24T03:16:12;18.50;99.90
52024;DHT22;38038;45.922;13.604;2023-05-24T03:18:38;18.50;99.90
52024;DHT22;38038;45.922;13.604;2023-05-24T03:21:04;18.40;99.90
52024;DHT22;38038;45.922;13.604;2023-05-24T03:23:30;18.40;99.90
52024;DHT22;38038;45.922;13.604;2023-05-24T03:25:55;18.40;99.90
52024;DHT22;38038;45.922;13.604;2023-05-24T03:28:21;18.50;99.90
52024;DHT22;38038;45.922;13.604;2023-05-24T03:30:54;18.40;99.90
52024;DHT22;38038;45.922;13.604;2023-05-24T03:33:25;18.30;99.90
52024;DHT22;38038;45.922;13.604;2023-05-24T03:35:51;18.40;99.90
52024;DHT22;38038;45.922;13.604;2023-05-24T03:38:23;18.20;99.90
52024;DHT22;38038;45.922;13.604;2023-05-24T03:40:48;18.00;99.90
52024;DHT22;38038;45.922;13.604;2023-05-24T03:43:14;17.80;99.90
52024;DHT22;38038;45.922;13.604;2023-05-24T03:45:41;17.80;99.90
52024;DHT22;38038;45.922;13.604;2023-05-24T03:48:07;17.80;99.90
52024;DHT22;38038;45.922;13.604;2023-05-24T03:50:33;17.70;99.90
52024;DHT22;38038;45.922;13.604;2023-05-24T03:52:58;17.70;99.90
52024;DHT22;38038;45.922;13.604;2023-05-24T03:55:24;17.70;99.90
52024;DHT22;38038;45.922;13.604;2023-05-24T03:57:50;17.60;99.90
52024;DHT22;38038;45.922;13.604;2023-05-24T04:00:16;17.50;99.90
52024;DHT22;38038;45.922;13.604;2023-05-24T04:02:42;17.50;99.90
52024;DHT22;38038;45.922;13.604;2023-05-24T04:05:09;17.50;99.90
52024;DHT22;38038;45.922;13.604;2023-05-24T04:07:36;17.50;99.90
52024;DHT22;38038;45.922;13.604;2023-05-24T04:10:06;17.50;99.90
52024;DHT22;38038;45.922;13.604;2023-05-24T04:12:32;17.50;99.90
52024;DHT22;38038;45.922;13.604;2023-05-24T04:14:58;17.50;99.90
52024;DHT22;38038;45.922;13.604;2023-05-24T04:17:25;17.50;99.90
52024;DHT22;38038;45.922;13.604;2023-05-24T04:19:52;17.50;99.90
52024;DHT22;38038;45.922;13.604;2023-05-24T04:22:18;17.40;99.90
52024;DHT22;38038;45.922;13.604;2023-05-24T04:24:44;17.30;99.90
52024;DHT22;38038;45.922;13.604;2023-05-24T04:27:10;17.30;99.90
52024;DHT22;38038;45.922;13.604;2023-05-24T04:29:37;17.40;99.90
52024;DHT22;38038;45.922;13.604;2023-05-24T04:32:03;17.20;99.90
52024;DHT22;38038;45.922;13.604;2023-05-24T04:34:30;17.20;99.90
52024;DHT22;38038;45.922;13.604;2023-05-24T04:36:59;17.30;99.90
52024;DHT22;38038;45.922;13.604;2023-05-24T04:39:25;17.40;99.90
52024;DHT22;38038;45.922;13.604;2023-05-24T04:41:50;17.40;99.90
52024;DHT22;38038;45.922;13.604;2023-05-24T04:44:17;17.40;99.90
52024;DHT22;38038;45.922;13.604;2023-05-24T04:46:43;17.30;99.90
52024;DHT22;38038;45.922;13.604;2023-05-24T04:49:09;17.40;99.90
52024;DHT22;38038;45.922;13.604;2023-05-24T04:51:35;17.40;99.90
52024;DHT22;38038;45.922;13.604;2023-05-24T04:54:04;17.30;99.90
52024;DHT22;38038;45.922;13.604;2023-05-24T04:56:34;17.20;99.90
52024;DHT22;38038;45.922;13.604;2023-05-24T04:59:00;17.30;99.90
52024;DHT22;38038;45.922;13.604;2023-05-24T05:01:26;17.30;99.90
52024;DHT22;38038;45.922;13.604;2023-05-24T05:03:52;17.30;99.90
52024;DHT22;38038;45.922;13.604;2023-05-24T05:06:17;17.40;99.90
52024;DHT22;38038;45.922;13.604;2023-05-24T05:08:43;17.50;99.90
52024;DHT22;38038;45.922;13.604;2023-05-24T05:11:09;17.60;99.90
52024;DHT22;38038;45.922;13.604;2023-05-24T05:13:34;17.60;99.90
52024;DHT22;38038;45.922;13.604;2023-05-24T05:16:01;17.60;99.90
52024;DHT22;38038;45.922;13.604;2023-05-24T05:18:27;17.60;99.90
52024;DHT22;38038;45.922;13.604;2023-05-24T05:20:52;17.70;99.90
52024;DHT22;38038;45.922;13.604;2023-05-24T05:23:18;17.60;99.90
52024;DHT22;38038;45.922;13.604;2023-05-24T05:25:44;17.60;99.90
52024;DHT22;38038;45.922;13.604;2023-05-24T05:28:09;17.60;99.90
52024;DHT22;38038;45.922;13.604;2023-05-24T05:30:35;17.70;99.90
52024;DHT22;38038;45.922;13.604;2023-05-24T05:33:01;17.70;99.90
52024;DHT22;38038;45.922;13.604;2023-05-24T05:35:26;17.70;99.90
52024;DHT22;38038;45.922;13.604;2023-05-24T05:37:52;17.70;99.90
52024;DHT22;38038;45.922;13.604;2023-05-24T05:40:18;17.50;99.90
52024;DHT22;38038;45.922;13.604;2023-05-24T05:42:43;17.40;99.90
52024;DHT22;38038;45.922;13.604;2023-05-24T05:45:11;17.20;99.90
52024;DHT22;38038;45.922;13.604;2023-05-24T05:47:37;17.10;99.90
52024;DHT22;38038;45.922;13.604;2023-05-24T05:50:02;17.10;99.90
52024;DHT22;38038;45.922;13.604;2023-05-24T05:52:28;17.20;99.90
52024;DHT22;38038;45.922;13.604;2023-05-24T05:54:54;17.10;99.90
52024;DHT22;38038;45.922;13.604;2023-05-24T05:57:20;17.10;99.90
52024;DHT22;38038;45.922;13.604;2023-05-24T05:59:49;17.20;99.90
52024;DHT22;38038;45.922;13.604;2023-05-24T06:02:15;17.30;99.90
52024;DHT22;38038;45.922;13.604;2023-05-24T06:04:40;17.30;99.90
52024;DHT22;38038;45.922;13.604;2023-05-24T06:07:06;17.50;99.90
52024;DHT22;38038;45.922;13.604;2023-05-24T06:09:31;17.40;99.90
52024;DHT22;38038;45.922;13.604;2023-05-24T06:11:57;17.30;99.90
52024;DHT22;38038;45.922;13.604;2023-05-24T06:14:23;17.00;99.90
52024;DHT22;38038;45.922;13.604;2023-05-24T06:16:49;17.10;99.90
52024;DHT22;38038;45.922;13.604;2023-05-24T06:19:17;17.00;99.90
52024;DHT22;38038;45.922;13.604;2023-05-24T06:21:43;17.00;99.90
52024;DHT22;38038;45.922;13.604;2023-05-24T06:24:13;17.00;99.90
52024;DHT22;38038;45.922;13.604;2023-05-24T06:26:39;17.00;99.90
52024;DHT22;38038;45.922;13.604;2023-05-24T06:29:06;17.00;99.90
52024;DHT22;38038;45.922;13.604;2023-05-24T06:31:31;17.10;99.90
52024;DHT22;38038;45.922;13.604;2023-05-24T06:33:57;17.00;99.90
52024;DHT22;38038;45.922;13.604;2023-05-24T06:36:23;17.00;99.90
52024;DHT22;38038;45.922;13.604;2023-05-24T06:38:48;17.00;99.90
52024;DHT22;38038;45.922;13.604;2023-05-24T06:41:14;17.00;99.90
52024;DHT22;38038;45.922;13.604;2023-05-24T06:43:40;17.00;99.90
52024;DHT22;38038;45.922;13.604;2023-05-24T06:46:06;17.10;99.90
52024;DHT22;38038;45.922;13.604;2023-05-24T06:48:31;17.20;99.90
52024;DHT22;38038;45.922;13.604;2023-05-24T06:50:57;17.20;99.90
52024;DHT22;38038;45.922;13.604;2023-05-24T06:53:23;17.30;99.90
52024;DHT22;38038;45.922;13.604;2023-05-24T06:55:48;17.30;99.90
52024;DHT22;38038;45.922;13.604;2023-05-24T06:58:14;17.40;99.90
52024;DHT22;38038;45.922;13.604;2023-05-24T07:00:41;17.40;99.90
52024;DHT22;38038;45.922;13.604;2023-05-24T07:03:11;17.50;99.90
52024;DHT22;38038;45.922;13.604;2023-05-24T07:05:37;17.60;99.90
52024;DHT22;38038;45.922;13.604;2023-05-24T07:08:03;17.70;99.90
52024;DHT22;38038;45.922;13.604;2023-05-24T07:10:28;17.70;99.90
52024;DHT22;38038;45.922;13.604;2023-05-24T07:12:54;17.60;99.90
52024;DHT22;38038;45.922;13.604;2023-05-24T07:15:20;17.70;99.90
52024;DHT22;38038;45.922;13.604;2023-05-24T07:17:46;17.70;99.90
52024;DHT22;38038;45.922;13.604;2023-05-24T07:20:12;17.80;99.90
52024;DHT22;38038;45.922;13.604;2023-05-24T07:22:42;17.90;99.90
52024;DHT22;38038;45.922;13.604;2023-05-24T07:25:08;17.90;99.90
52024;DHT22;38038;45.922;13.604;2023-05-24T07:27:34;18.00;99.90
52024;DHT22;38038;45.922;13.604;2023-05-24T07:30:00;17.90;99.90
52024;DHT22;38038;45.922;13.604;2023-05-24T07:32:26;18.00;99.90
52024;DHT22;38038;45.922;13.604;2023-05-24T07:34:52;18.00;99.90
52024;DHT22;38038;45.922;13.604;2023-05-24T07:37:19;18.00;99.90
52024;DHT22;38038;45.922;13.604;2023-05-24T07:39:44;17.90;99.90
52024;DHT22;38038;45.922;13.604;2023-05-24T07:42:10;17.90;99.90
52024;DHT22;38038;45.922;13.604;2023-05-24T07:44:36;17.90;99.90
52024;DHT22;38038;45.922;13.604;2023-05-24T07:47:01;18.00;99.90
52024;DHT22;38038;45.922;13.604;2023-05-24T07:49:27;18.10;99.90
52024;DHT22;38038;45.922;13.604;2023-05-24T07:51:53;18.20;99.90
52024;DHT22;38038;45.922;13.604;2023-05-24T07:54:22;18.30;99.90
52024;DHT22;38038;45.922;13.604;2023-05-24T07:56:48;18.50;99.90
52024;DHT22;38038;45.922;13.604;2023-05-24T07:59:14;18.50;99.90
52024;DHT22;38038;45.922;13.604;2023-05-24T08:01:40;18.50;99.90
52024;DHT22;38038;45.922;13.604;2023-05-24T08:04:05;18.50;99.90
52024;DHT22;38038;45.922;13.604;2023-05-24T08:06:34;18.50;99.90
52024;DHT22;38038;45.922;13.604;2023-05-24T08:09:03;18.70;99.90
52024;DHT22;38038;45.922;13.604;2023-05-24T08:11:29;18.50;99.90
52024;DHT22;38038;45.922;13.604;2023-05-24T08:13:55;18.70;99.90
52024;DHT22;38038;45.922;13.604;2023-05-24T08:16:20;18.60;99.90
52024;DHT22;38038;45.922;13.604;2023-05-24T08:18:46;18.80;99.90
52024;DHT22;38038;45.922;13.604;2023-05-24T08:21:12;19.00;99.90
52024;DHT22;38038;45.922;13.604;2023-05-24T08:23:38;19.10;99.90
52024;DHT22;38038;45.922;13.604;2023-05-24T08:26:03;19.30;99.90
52024;DHT22;38038;45.922;13.604;2023-05-24T08:28:29;19.60;99.90
52024;DHT22;38038;45.922;13.604;2023-05-24T08:30:56;19.80;99.90
52024;DHT22;38038;45.922;13.604;2023-05-24T17:27:26;24.10;97.80
52024;DHT22;38038;45.922;13.604;2023-05-24T17:29:52;24.00;97.80
52024;DHT22;38038;45.922;13.604;2023-05-24T17:32:17;23.80;97.80
52024;DHT22;38038;45.922;13.604;2023-05-24T17:34:43;23.50;98.10
52024;DHT22;38038;45.922;13.604;2023-05-24T17:37:09;23.20;98.60
52024;DHT22;38038;45.922;13.604;2023-05-24T17:39:34;23.20;99.30
52024;DHT22;38038;45.922;13.604;2023-05-24T17:42:00;23.10;99.20
52024;DHT22;38038;45.922;13.604;2023-05-24T17:44:27;23.00;99.30
52024;DHT22;38038;45.922;13.604;2023-05-24T17:46:52;22.90;99.30
52024;DHT22;38038;45.922;13.604;2023-05-24T17:49:18;22.90;99.70
52024;DHT22;38038;45.922;13.604;2023-05-24T17:51:44;22.90;99.80
52024;DHT22;38038;45.922;13.604;2023-05-24T17:54:09;22.80;99.90
52024;DHT22;38038;45.922;13.604;2023-05-24T17:56:35;22.60;99.90
52024;DHT22;38038;45.922;13.604;2023-05-24T17:59:01;22.50;99.90
52024;DHT22;38038;45.922;13.604;2023-05-24T18:01:27;22.50;99.90
52024;DHT22;38038;45.922;13.604;2023-05-24T18:03:53;22.30;99.90
52024;DHT22;38038;45.922;13.604;2023-05-24T18:06:19;22.40;99.90
52024;DHT22;38038;45.922;13.604;2023-05-24T18:08:45;22.30;99.90
52024;DHT22;38038;45.922;13.604;2023-05-24T18:11:12;22.30;99.90
52024;DHT22;38038;45.922;13.604;2023-05-24T18:13:39;22.20;99.90
52024;DHT22;38038;45.922;13.604;2023-05-24T18:16:07;22.10;99.90
52024;DHT22;38038;45.922;13.604;2023-05-24T18:18:33;22.00;99.90
52024;DHT22;38038;45.922;13.604;2023-05-24T18:20:59;22.00;99.90
52024;DHT22;38038;45.922;13.604;2023-05-24T18:23:25;21.90;99.90
52024;DHT22;38038;45.922;13.604;2023-05-24T18:25:51;21.80;99.90
52024;DHT22;38038;45.922;13.604;2023-05-24T18:28:17;21.90;99.90
52024;DHT22;38038;45.922;13.604;2023-05-24T18:30:42;21.80;99.90
52024;DHT22;38038;45.922;13.604;2023-05-24T18:33:08;21.60;99.90
52024;DHT22;38038;45.922;13.604;2023-05-24T18:35:34;21.50;99.90
52024;DHT22;38038;45.922;13.604;2023-05-24T18:38:00;21.40;99.90
52024;DHT22;38038;45.922;13.604;2023-05-24T18:40:25;21.30;99.90
52024;DHT22;38038;45.922;13.604;2023-05-24T18:42:51;21.30;99.90
52024;DHT22;38038;45.922;13.604;2023-05-24T18:45:17;21.20;99.90
52024;DHT22;38038;45.922;13.604;2023-05-24T18:47:43;21.20;99.90
52024;DHT22;38038;45.922;13.604;2023-05-24T18:50:09;21.10;99.90
52024;DHT22;38038;45.922;13.604;2023-05-24T18:52:35;21.00;99.90
52024;DHT22;38038;45.922;13.604;2023-05-24T18:55:01;20.90;99.90
52024;DHT22;38038;45.922;13.604;2023-05-24T18:57:37;20.90;99.90
52024;DHT22;38038;45.922;13.604;2023-05-24T19:00:04;20.90;99.90
52024;DHT22;38038;45.922;13.604;2023-05-24T19:02:32;20.90;99.90
52024;DHT22;38038;45.922;13.604;2023-05-24T19:05:03;21.00;99.90
52024;DHT22;38038;45.922;13.604;2023-05-24T19:07:29;21.00;99.90
52024;DHT22;38038;45.922;13.604;2023-05-24T19:09:55;20.90;99.90
52024;DHT22;38038;45.922;13.604;2023-05-24T19:12:20;20.80;99.90
52024;DHT22;38038;45.922;13.604;2023-05-24T19:14:46;20.70;99.90
52024;DHT22;38038;45.922;13.604;2023-05-24T19:17:12;20.60;99.90
52024;DHT22;38038;45.922;13.604;2023-05-24T19:19:37;20.60;99.90
52024;DHT22;38038;45.922;13.604;2023-05-24T19:22:03;20.60;99.90
52024;DHT22;38038;45.922;13.604;2023-05-24T19:24:29;20.60;99.90
52024;DHT22;38038;45.922;13.604;2023-05-24T19:26:55;20.70;99.90
52024;DHT22;38038;45.922;13.604;2023-05-24T19:29:20;20.60;99.90
52024;DHT22;38038;45.922;13.604;2023-05-24T19:31:46;20.50;99.90
52024;DHT22;38038;45.922;13.604;2023-05-24T19:34:15;20.50;99.90
52024;DHT22;38038;45.922;13.604;2023-05-24T19:36:41;20.40;99.90
52024;DHT22;38038;45.922;13.604;2023-05-24T19:39:06;20.30;99.90
52024;DHT22;38038;45.922;13.604;2023-05-24T19:41:32;20.30;99.90
52024;DHT22;38038;45.922;13.604;2023-05-24T19:43:58;20.30;99.90
52024;DHT22;38038;45.922;13.604;2023-05-24T19:46:24;20.30;99.90
52024;DHT22;38038;45.922;13.604;2023-05-24T19:48:50;20.30;99.90
52024;DHT22;38038;45.922;13.604;2023-05-24T19:51:16;20.30;99.90
52024;DHT22;38038;45.922;13.604;2023-05-24T19:53:42;20.20;99.90
52024;DHT22;38038;45.922;13.604;2023-05-24T19:56:08;20.20;99.90
52024;DHT22;38038;45.922;13.604;2023-05-24T19:58:33;20.10;99.90
52024;DHT22;38038;45.922;13.604;2023-05-24T20:00:59;20.10;99.90
52024;DHT22;38038;45.922;13.604;2023-05-24T20:03:25;20.10;99.90
52024;DHT22;38038;45.922;13.604;2023-05-24T20:05:51;20.10;99.90
52024;DHT22;38038;45.922;13.604;2023-05-24T20:08:17;20.10;99.90
52024;DHT22;38038;45.922;13.604;2023-05-24T20:10:45;20.00;99.90
52024;DHT22;38038;45.922;13.604;2023-05-24T20:13:11;20.00;99.90
52024;DHT22;38038;45.922;13.604;2023-05-24T20:15:37;20.00;99.90
52024;DHT22;38038;45.922;13.604;2023-05-24T20:18:03;19.90;99.90
52024;DHT22;38038;45.922;13.604;2023-05-24T20:20:28;20.00;99.90
52024;DHT22;38038;45.922;13.604;2023-05-24T20:22:54;20.10;99.90
52024;DHT22;38038;45.922;13.604;2023-05-24T20:25:20;20.00;99.90
52024;DHT22;38038;45.922;13.604;2023-05-24T20:27:45;20.00;99.90
52024;DHT22;38038;45.922;13.604;2023-05-24T20:30:12;20.00;99.90
52024;DHT22;38038;45.922;13.604;2023-05-24T20:32:37;20.00;99.90
52024;DHT22;38038;45.922;13.604;2023-05-24T20:35:03;20.00;99.90
52024;DHT22;38038;45.922;13.604;2023-05-24T20:37:29;20.00;99.90
52024;DHT22;38038;45.922;13.604;2023-05-24T20:39:55;20.00;99.90
52024;DHT22;38038;45.922;13.604;2023-05-24T20:42:21;19.90;99.90
52024;DHT22;38038;45.922;13.604;2023-05-24T20:44:47;20.00;99.90
52024;DHT22;38038;45.922;13.604;2023-05-24T20:47:12;20.00;99.90
52024;DHT22;38038;45.922;13.604;2023-05-24T20:49:41;19.80;99.90
52024;DHT22;38038;45.922;13.604;2023-05-24T20:52:09;19.80;99.90
52024;DHT22;38038;45.922;13.604;2023-05-24T20:54:35;19.80;99.90
52024;DHT22;38038;45.922;13.604;2023-05-24T20:57:01;19.80;99.90
52024;DHT22;38038;45.922;13.604;2023-05-24T20:59:27;19.70;99.90
52024;DHT22;38038;45.922;13.604;2023-05-24T21:01:53;19.70;99.90
52024;DHT22;38038;45.922;13.604;2023-05-24T21:04:19;19.60;99.90
52024;DHT22;38038;45.922;13.604;2023-05-24T21:06:45;19.60;99.90
52024;DHT22;38038;45.922;13.604;2023-05-24T21:09:10;19.60;99.90
52024;DHT22;38038;45.922;13.604;2023-05-24T21:11:36;19.60;99.90
52024;DHT22;38038;45.922;13.604;2023-05-24T21:14:02;19.50;99.90
52024;DHT22;38038;45.922;13.604;2023-05-24T21:16:27;19.60;99.90
52024;DHT22;38038;45.922;13.604;2023-05-24T21:18:53;19.60;99.90
52024;DHT22;38038;45.922;13.604;2023-05-24T21:21:19;19.60;99.90
52024;DHT22;38038;45.922;13.604;2023-05-24T21:23:44;19.60;99.90
52024;DHT22;38038;45.922;13.604;2023-05-24T21:26:10;19.60;99.90
52024;DHT22;38038;45.922;13.604;2023-05-24T21:28:36;19.60;99.90
52024;DHT22;38038;45.922;13.604;2023-05-24T21:31:02;19.60;99.90
52024;DHT22;38038;45.922;13.604;2023-05-24T21:33:27;19.60;99.90
52024;DHT22;38038;45.922;13.604;2023-05-24T21:35:53;19.60;99.90
52024;DHT22;38038;45.922;13.604;2023-05-24T21:38:19;19.60;99.90
52024;DHT22;38038;45.922;13.604;2023-05-24T21:40:44;19.60;99.90
52024;DHT22;38038;45.922;13.604;2023-05-24T21:43:10;19.60;99.90
52024;DHT22;38038;45.922;13.604;2023-05-24T21:45:40;19.60;99.90
52024;DHT22;38038;45.922;13.604;2023-05-24T21:48:06;19.60;99.90
52024;DHT22;38038;45.922;13.604;2023-05-24T21:50:33;19.50;99.90
52024;DHT22;38038;45.922;13.604;2023-05-24T21:52:58;19.50;99.90
52024;DHT22;38038;45.922;13.604;2023-05-24T21:55:24;19.60;99.90
52024;DHT22;38038;45.922;13.604;2023-05-24T21:57:50;19.60;99.90
52024;DHT22;38038;45.922;13.604;2023-05-24T22:00:19;19.60;99.90
52024;DHT22;38038;45.922;13.604;2023-05-24T22:02:45;19.50;99.90
52024;DHT22;38038;45.922;13.604;2023-05-24T22:05:11;19.50;99.90
52024;DHT22;38038;45.922;13.604;2023-05-24T22:07:37;19.50;99.90
52024;DHT22;38038;45.922;13.604;2023-05-24T22:10:04;19.50;99.90
52024;DHT22;38038;45.922;13.604;2023-05-24T22:12:30;19.50;99.90
52024;DHT22;38038;45.922;13.604;2023-05-24T22:14:55;19.50;99.90
52024;DHT22;38038;45.922;13.604;2023-05-24T22:17:21;19.50;99.90
52024;DHT22;38038;45.922;13.604;2023-05-24T22:19:47;19.50;99.90
52024;DHT22;38038;45.922;13.604;2023-05-24T22:22:13;19.40;99.90
52024;DHT22;38038;45.922;13.604;2023-05-24T22:24:44;19.50;99.90
52024;DHT22;38038;45.922;13.604;2023-05-24T22:27:11;19.50;99.90
52024;DHT22;38038;45.922;13.604;2023-05-24T22:29:38;19.40;99.90
52024;DHT22;38038;45.922;13.604;2023-05-24T22:32:04;19.50;99.90
52024;DHT22;38038;45.922;13.604;2023-05-24T22:34:30;19.50;99.90
52024;DHT22;38038;45.922;13.604;2023-05-24T22:36:56;19.50;99.90
52024;DHT22;38038;45.922;13.604;2023-05-24T22:39:22;19.50;99.90
52024;DHT22;38038;45.922;13.604;2023-05-24T22:41:49;19.40;99.90
52024;DHT22;38038;45.922;13.604;2023-05-24T22:44:15;19.30;99.90
52024;DHT22;38038;45.922;13.604;2023-05-24T22:46:41;19.40;99.90
52024;DHT22;38038;45.922;13.604;2023-05-24T22:49:06;19.40;99.90
52024;DHT22;38038;45.922;13.604;2023-05-24T22:51:32;19.40;99.90
52024;DHT22;38038;45.922;13.604;2023-05-24T22:53:58;19.40;99.90
52024;DHT22;38038;45.922;13.604;2023-05-24T22:56:24;19.40;99.90
52024;DHT22;38038;45.922;13.604;2023-05-24T22:58:51;19.40;99.90
52024;DHT22;38038;45.922;13.604;2023-05-24T23:01:17;19.40;99.90
52024;DHT22;38038;45.922;13.604;2023-05-24T23:03:43;19.40;99.90
52024;DHT22;38038;45.922;13.604;2023-05-24T23:06:09;19.50;99.90
52024;DHT22;38038;45.922;13.604;2023-05-24T23:08:37;19.40;99.90
52024;DHT22;38038;45.922;13.604;2023-05-24T23:11:03;19.40;99.90
52024;DHT22;38038;45.922;13.604;2023-05-24T23:13:35;19.40;99.90
52024;DHT22;38038;45.922;13.604;2023-05-24T23:16:01;19.40;99.90
52024;DHT22;38038;45.922;13.604;2023-05-24T23:18:27;19.40;99.90
52024;DHT22;38038;45.922;13.604;2023-05-24T23:20:54;19.40;99.90
52024;DHT22;38038;45.922;13.604;2023-05-24T23:23:22;19.30;99.90
52024;DHT22;38038;45.922;13.604;2023-05-24T23:25:49;19.20;99.90
52024;DHT22;38038;45.922;13.604;2023-05-24T23:28:15;19.20;99.90
52024;DHT22;38038;45.922;13.604;2023-05-24T23:30:41;19.20;99.90
52024;DHT22;38038;45.922;13.604;2023-05-24T23:33:06;19.10;99.90
52024;DHT22;38038;45.922;13.604;2023-05-24T23:35:32;19.20;99.90
52024;DHT22;38038;45.922;13.604;2023-05-24T23:37:58;19.10;99.90
52024;DHT22;38038;45.922;13.604;2023-05-24T23:40:23;19.10;99.90
52024;DHT22;38038;45.922;13.604;2023-05-24T23:42:51;19.10;99.90
52024;DHT22;38038;45.922;13.604;2023-05-24T23:45:17;19.00;99.90
52024;DHT22;38038;45.922;13.604;2023-05-24T23:47:43;19.00;99.90
52024;DHT22;38038;45.922;13.604;2023-05-24T23:50:09;19.00;99.90
52024;DHT22;38038;45.922;13.604;2023-05-24T23:52:35;19.00;99.90
52024;DHT22;38038;45.922;13.604;2023-05-24T23:55:00;19.00;99.90
52024;DHT22;38038;45.922;13.604;2023-05-24T23:57:26;19.00;99.90
52024;DHT22;38038;45.922;13.604;2023-05-24T23:59:52;19.10;99.90
